MSC Poh Lin — H8FC — position and weather

sailwx.info

Track history (hours):
 
Tides and Currents Weather Stations Pressure Air Temp Water Temp Dewpoint Dewpoint Depression Visibility Wind Speed Wind Dir Waves Ship Positions

MSC Poh Lin

Last reported at 2014-Aug-02 07:31 UTC. Time now 2014-Aug-02 08:39 UTC.
Position N 41°03' W 125°09'.

Length 294 m; draft 8.3 m.

Type: Ship (hazmat cat A). MMSI: 357405000.

Date/timePositionNaut miles runAvg speedWind from/ knotsBaromVisibWave heightAir tempDewpointWater temp
2014-Aug-02 07:31N 41°03' W 125°09'7715.6
2014-Aug-02 02:33N 39°47' W 124°50'1514.7
2014-Aug-02 01:33N 39°33' W 124°44'4715.5
2014-Aug-01 22:30N 38°48' W 124°24'1515.6
2014-Aug-01 21:33N 38°35' W 124°16'1715.6
2014-Aug-01 20:27N 38°19' W 124°07'1415.6
2014-Aug-01 19:33N 38°06' W 124°00'1615.6
2014-Aug-01 18:33N 37°52' W 123°52'1515.2
2014-Aug-01 17:33N 37°38' W 123°43'1515.1
2014-Aug-01 16:33N 37°27' W 123°30'1010.2
2014-Aug-01 15:33N 37°27' W 123°18'1211.8
2014-Aug-01 14:33N 37°34' W 123°05'1212.0
2014-Aug-01 13:33N 37°40' W 122°52'1211.6
2014-Aug-01 12:34N 37°46' W 122°40'1413.7
2014-Aug-01 11:34N 37°48' W 122°23'3 2.8
2014-Aug-01 10:31N 37°49' W 122°19'0 0.0
2014-Aug-01 09:31N 37°49' W 122°19'0 0.0
2014-Aug-01 08:31N 37°49' W 122°19'0 0.0
2014-Aug-01 07:31N 37°49' W 122°19'0 0.0
2014-Aug-01 06:31N 37°49' W 122°19'0 0.0
2014-Aug-01 05:31N 37°49' W 122°19'0 0.0
2014-Aug-01 04:31N 37°49' W 122°19'0 0.0
2014-Aug-01 03:31N 37°49' W 122°19'0 0.0
2014-Aug-01 02:31N 37°49' W 122°19'0 0.0
2014-Aug-01 01:31N 37°49' W 122°19'0 0.0
2014-Aug-01 00:31N 37°49' W 122°19'0 0.1
2014-Jul-31 23:34N 37°49' W 122°19'9 9.3
2014-Jul-31 22:33N 37°48' W 122°31'1211.7
2014-Jul-31 21:33N 37°43' W 122°44'6 6.2
2014-Jul-31 20:33N 37°39' W 122°50'8 8.4
2014-Jul-31 19:33N 37°34' W 122°59'9 8.7
2014-Jul-31 18:33N 37°27' W 123°06'9 8.5
2014-Jul-31 17:33N 37°20' W 123°12'9 8.7
2014-Jul-31 16:33N 37°12' W 123°15'1212.4
2014-Jul-31 15:33N 36°60' W 123°16'10 9.7
2014-Jul-31 14:33N 36°59' W 123°04'1010.0
2014-Jul-31 13:33N 36°50' W 122°58'1010.1
2014-Jul-31 12:33N 36°41' W 122°52'1010.1
2014-Jul-31 11:33N 36°32' W 122°46'1010.2
2014-Jul-31 10:33N 36°23' W 122°40'10 9.8
2014-Jul-31 09:33N 36°14' W 122°34'10 9.8
2014-Jul-31 08:33N 36°06' W 122°29'10 9.7
2014-Jul-31 07:33N 35°57' W 122°23'10 9.7
2014-Jul-31 06:33N 35°49' W 122°17'10 9.8
2014-Jul-31 05:33N 35°40' W 122°11'9 9.4
2014-Jul-31 04:33N 35°32' W 122°06'9 9.1
2014-Jul-31 03:33N 35°24' W 122°01'9 9.3
2014-Jul-31 02:33N 35°16' W 121°55'9 9.4
2014-Jul-31 01:33N 35°07' W 121°50'10 9.5
2014-Jul-31 00:33N 34°59' W 121°44'9 9.0
2014-Jul-30 23:33N 34°51' W 121°39'9 8.8
2014-Jul-30 22:33N 34°43' W 121°34'8 8.4
2014-Jul-30 21:33N 34°36' W 121°29'9 8.7
2014-Jul-30 20:33N 34°28' W 121°24'9 9.0
2014-Jul-30 19:33N 34°21' W 121°18'9 8.8
2014-Jul-30 18:33N 34°13' W 121°13'9 9.0
2014-Jul-30 17:33N 34°05' W 121°08'9 8.9
2014-Jul-30 16:33N 33°57' W 121°03'10 9.6
2014-Jul-30 15:33N 33°49' W 120°58'10 9.8
2014-Jul-30 14:33N 33°41' W 120°50'1110.5
2014-Jul-30 13:33N 33°35' W 120°40'1010.2
2014-Jul-30 12:33N 33°31' W 120°28'1211.9
2014-Jul-30 11:33N 33°28' W 120°14'1111.0
2014-Jul-30 10:33N 33°30' W 120°01'11 9.7
2014-Jul-30 09:28N 33°31' W 119°49'910.0
2014-Jul-30 08:33N 33°33' W 119°38'1010.1
2014-Jul-30 07:33N 33°34' W 119°26'2110.3
2014-Jul-30 05:32N 33°36' W 119°01'1010.8
2014-Jul-30 04:33N 33°37' W 118°48'1010.4
2014-Jul-30 03:33N 33°36' W 118°36'1010.0
2014-Jul-30 02:33N 33°35' W 118°24'9 8.8
2014-Jul-30 01:33N 33°38' W 118°14'8 7.6
2014-Jul-30 00:33N 33°45' W 118°13'1 1.1
2014-Jul-29 23:33N 33°46' W 118°14'0 0.0
2014-Jul-29 22:32N 33°46' W 118°14'0 0.1
2014-Jul-29 21:32N 33°46' W 118°14'0 0.1
2014-Jul-29 20:32N 33°46' W 118°14'0 0.0
2014-Jul-29 19:29N 33°46' W 118°14'0 0.1
2014-Jul-29 18:32N 33°46' W 118°14'0 0.1
2014-Jul-29 17:32N 33°46' W 118°14'0 0.0
2014-Jul-29 16:32N 33°46' W 118°14'0 0.0
2014-Jul-29 15:32N 33°46' W 118°14'0 0.0
2014-Jul-29 14:32N 33°46' W 118°14'0 0.0
2014-Jul-29 13:32N 33°46' W 118°14'0 0.0
2014-Jul-29 12:32N 33°46' W 118°14'1 1.4
2014-Jul-29 11:33N 33°45' W 118°13'6 6.3
2014-Jul-29 10:33N 33°39' W 118°10'8 7.8
2014-Jul-29 09:33N 33°32' W 118°08'9 9.2
2014-Jul-29 08:33N 33°23' W 118°04'9 9.3
2014-Jul-29 07:33N 33°14' W 118°00'9 9.1
2014-Jul-29 06:33N 33°06' W 117°55'9 9.0
2014-Jul-29 05:33N 32°59' W 117°49'1414.1
2014-Jul-29 04:34N 32°45' W 117°47'1615.5
2014-Jul-29 03:33N 32°30' W 117°44'1515.3
2014-Jul-29 02:33N 32°14' W 117°43'1515.3
2014-Jul-29 01:33N 31°59' W 117°40'1615.5
2014-Jul-29 00:33N 31°45' W 117°34'1515.3
2014-Jul-28 23:33N 31°30' W 117°28'1515.3
2014-Jul-28 22:34N 31°16' W 117°21'1615.6
2014-Jul-28 21:33N 31°01' W 117°15'1615.6
2014-Jul-28 20:34N 30°47' W 117°09'1615.9
2014-Jul-28 19:34N 30°32' W 117°03'1616.2
2014-Jul-28 18:33N 30°16' W 116°56'1616.0
2014-Jul-28 17:34N 30°01' W 116°50'1616.0
2014-Jul-28 16:34N 29°46' W 116°44'1616.2
2014-Jul-28 15:33N 29°31' W 116°38'1616.1
2014-Jul-28 14:32N 29°16' W 116°31'1815.8
2014-Jul-28 13:23N 28°58' W 116°24'1315.7
2014-Jul-28 12:33N 28°46' W 116°19'3115.4
2014-Jul-28 10:33N 28°17' W 116°07'1615.8
2014-Jul-28 09:33N 28°02' W 116°01'1816.0
2014-Jul-28 08:26N 27°48' W 115°49'1415.4
2014-Jul-28 07:34N 27°37' W 115°39'1514.9
2014-Jul-28 06:34N 27°26' W 115°29'1515.2
2014-Jul-28 05:34N 27°14' W 115°18'1616.3
2014-Jul-28 04:33N 27°01' W 115°06'1616.0
2014-Jul-28 03:33N 26°49' W 114°55'  
Track history (hours):
 
Tides and Currents Weather Stations Pressure Air Temp Water Temp Dewpoint Dewpoint Depression Visibility Wind Speed Wind Dir Waves Ship Positions

MSC Poh Lin

Last reported at 2014-Aug-02 07:31 UTC. Time now 2014-Aug-02 08:39 UTC.
Position N 41°03' W 125°09'.

Length 294 m; draft 8.3 m.

Type: Ship (hazmat cat A). MMSI: 357405000.

Date/timePositionNaut miles runAvg speedWind from/ knotsBaromVisibWave heightAir tempDewpointWater temp
2014-Aug-02 07:31N 41°03' W 125°09'7715.6
2014-Aug-02 02:33N 39°47' W 124°50'1514.7
2014-Aug-02 01:33N 39°33' W 124°44'4715.5
2014-Aug-01 22:30N 38°48' W 124°24'1515.6
2014-Aug-01 21:33N 38°35' W 124°16'1715.6
2014-Aug-01 20:27N 38°19' W 124°07'1415.6
2014-Aug-01 19:33N 38°06' W 124°00'1615.6
2014-Aug-01 18:33N 37°52' W 123°52'1515.2
2014-Aug-01 17:33N 37°38' W 123°43'1515.1
2014-Aug-01 16:33N 37°27' W 123°30'1010.2
2014-Aug-01 15:33N 37°27' W 123°18'1211.8
2014-Aug-01 14:33N 37°34' W 123°05'1212.0
2014-Aug-01 13:33N 37°40' W 122°52'1211.6
2014-Aug-01 12:34N 37°46' W 122°40'1413.7
2014-Aug-01 11:34N 37°48' W 122°23'3 2.8
2014-Aug-01 10:31N 37°49' W 122°19'0 0.0
2014-Aug-01 09:31N 37°49' W 122°19'0 0.0
2014-Aug-01 08:31N 37°49' W 122°19'0 0.0
2014-Aug-01 07:31N 37°49' W 122°19'0 0.0
2014-Aug-01 06:31N 37°49' W 122°19'0 0.0
2014-Aug-01 05:31N 37°49' W 122°19'0 0.0
2014-Aug-01 04:31N 37°49' W 122°19'0 0.0
2014-Aug-01 03:31N 37°49' W 122°19'0 0.0
2014-Aug-01 02:31N 37°49' W 122°19'0 0.0
2014-Aug-01 01:31N 37°49' W 122°19'0 0.0
2014-Aug-01 00:31N 37°49' W 122°19'0 0.1
2014-Jul-31 23:34N 37°49' W 122°19'9 9.3
2014-Jul-31 22:33N 37°48' W 122°31'1211.7
2014-Jul-31 21:33N 37°43' W 122°44'6 6.2
2014-Jul-31 20:33N 37°39' W 122°50'8 8.4
2014-Jul-31 19:33N 37°34' W 122°59'9 8.7
2014-Jul-31 18:33N 37°27' W 123°06'9 8.5
2014-Jul-31 17:33N 37°20' W 123°12'9 8.7
2014-Jul-31 16:33N 37°12' W 123°15'1212.4
2014-Jul-31 15:33N 36°60' W 123°16'10 9.7
2014-Jul-31 14:33N 36°59' W 123°04'1010.0
2014-Jul-31 13:33N 36°50' W 122°58'1010.1
2014-Jul-31 12:33N 36°41' W 122°52'1010.1
2014-Jul-31 11:33N 36°32' W 122°46'1010.2
2014-Jul-31 10:33N 36°23' W 122°40'10 9.8
2014-Jul-31 09:33N 36°14' W 122°34'10 9.8
2014-Jul-31 08:33N 36°06' W 122°29'10 9.7
2014-Jul-31 07:33N 35°57' W 122°23'10 9.7
2014-Jul-31 06:33N 35°49' W 122°17'10 9.8
2014-Jul-31 05:33N 35°40' W 122°11'9 9.4
2014-Jul-31 04:33N 35°32' W 122°06'9 9.1
2014-Jul-31 03:33N 35°24' W 122°01'9 9.3
2014-Jul-31 02:33N 35°16' W 121°55'9 9.4
2014-Jul-31 01:33N 35°07' W 121°50'10 9.5
2014-Jul-31 00:33N 34°59' W 121°44'9 9.0
2014-Jul-30 23:33N 34°51' W 121°39'9 8.8
2014-Jul-30 22:33N 34°43' W 121°34'8 8.4
2014-Jul-30 21:33N 34°36' W 121°29'9 8.7
2014-Jul-30 20:33N 34°28' W 121°24'9 9.0
2014-Jul-30 19:33N 34°21' W 121°18'9 8.8
2014-Jul-30 18:33N 34°13' W 121°13'9 9.0
2014-Jul-30 17:33N 34°05' W 121°08'9 8.9
2014-Jul-30 16:33N 33°57' W 121°03'10 9.6
2014-Jul-30 15:33N 33°49' W 120°58'10 9.8
2014-Jul-30 14:33N 33°41' W 120°50'1110.5
2014-Jul-30 13:33N 33°35' W 120°40'1010.2
2014-Jul-30 12:33N 33°31' W 120°28'1211.9
2014-Jul-30 11:33N 33°28' W 120°14'1111.0
2014-Jul-30 10:33N 33°30' W 120°01'11 9.7
2014-Jul-30 09:28N 33°31' W 119°49'910.0
2014-Jul-30 08:33N 33°33' W 119°38'1010.1
2014-Jul-30 07:33N 33°34' W 119°26'2110.3
2014-Jul-30 05:32N 33°36' W 119°01'1010.8
2014-Jul-30 04:33N 33°37' W 118°48'1010.4
2014-Jul-30 03:33N 33°36' W 118°36'1010.0
2014-Jul-30 02:33N 33°35' W 118°24'9 8.8
2014-Jul-30 01:33N 33°38' W 118°14'8 7.6
2014-Jul-30 00:33N 33°45' W 118°13'1 1.1
2014-Jul-29 23:33N 33°46' W 118°14'0 0.0
2014-Jul-29 22:32N 33°46' W 118°14'0 0.1
2014-Jul-29 21:32N 33°46' W 118°14'0 0.1
2014-Jul-29 20:32N 33°46' W 118°14'0 0.0
2014-Jul-29 19:29N 33°46' W 118°14'0 0.1
2014-Jul-29 18:32N 33°46' W 118°14'0 0.1
2014-Jul-29 17:32N 33°46' W 118°14'0 0.0
2014-Jul-29 16:32N 33°46' W 118°14'0 0.0
2014-Jul-29 15:32N 33°46' W 118°14'0 0.0
2014-Jul-29 14:32N 33°46' W 118°14'0 0.0
2014-Jul-29 13:32N 33°46' W 118°14'0 0.0
2014-Jul-29 12:32N 33°46' W 118°14'1 1.4
2014-Jul-29 11:33N 33°45' W 118°13'6 6.3
2014-Jul-29 10:33N 33°39' W 118°10'8 7.8
2014-Jul-29 09:33N 33°32' W 118°08'9 9.2
2014-Jul-29 08:33N 33°23' W 118°04'9 9.3
2014-Jul-29 07:33N 33°14' W 118°00'9 9.1
2014-Jul-29 06:33N 33°06' W 117°55'9 9.0
2014-Jul-29 05:33N 32°59' W 117°49'1414.1
2014-Jul-29 04:34N 32°45' W 117°47'1615.5
2014-Jul-29 03:33N 32°30' W 117°44'1515.3
2014-Jul-29 02:33N 32°14' W 117°43'1515.3
2014-Jul-29 01:33N 31°59' W 117°40'1615.5
2014-Jul-29 00:33N 31°45' W 117°34'1515.3
2014-Jul-28 23:33N 31°30' W 117°28'1515.3
2014-Jul-28 22:34N 31°16' W 117°21'1615.6
2014-Jul-28 21:33N 31°01' W 117°15'1615.6
2014-Jul-28 20:34N 30°47' W 117°09'1615.9
2014-Jul-28 19:34N 30°32' W 117°03'1616.2
2014-Jul-28 18:33N 30°16' W 116°56'1616.0
2014-Jul-28 17:34N 30°01' W 116°50'1616.0
2014-Jul-28 16:34N 29°46' W 116°44'1616.2
2014-Jul-28 15:33N 29°31' W 116°38'1616.1
2014-Jul-28 14:32N 29°16' W 116°31'1815.8
2014-Jul-28 13:23N 28°58' W 116°24'1315.7
2014-Jul-28 12:33N 28°46' W 116°19'3115.4
2014-Jul-28 10:33N 28°17' W 116°07'1615.8
2014-Jul-28 09:33N 28°02' W 116°01'1816.0
2014-Jul-28 08:26N 27°48' W 115°49'1415.4
2014-Jul-28 07:34N 27°37' W 115°39'1514.9
2014-Jul-28 06:34N 27°26' W 115°29'1515.2
2014-Jul-28 05:34N 27°14' W 115°18'1616.3
2014-Jul-28 04:33N 27°01' W 115°06'1616.0
2014-Jul-28 03:33N 26°49' W 114°55'  

Dump ship's entire track history